createdAt,value
2018-11-01T00:00:44.275Z,13.03
2018-11-01T00:03:13.533Z,13.97
2018-11-01T00:05:42.779Z,12.60
2018-11-01T00:08:12.014Z,12.40
2018-11-01T00:10:41.257Z,13.27
2018-11-01T00:13:10.474Z,10.03
2018-11-01T00:15:40.789Z,11.00
2018-11-01T00:18:10.038Z,11.97
2018-11-01T00:20:39.273Z,11.60
2018-11-01T00:23:08.542Z,10.97
2018-11-01T00:25:37.776Z,10.20
2018-11-01T00:28:07.034Z,12.20
2018-11-01T00:30:36.254Z,10.10
2018-11-01T00:33:05.754Z,8.50
2018-11-01T00:35:34.985Z,10.05
2018-11-01T00:38:04.221Z,9.40
2018-11-01T00:40:33.442Z,9.47
2018-11-01T00:43:02.682Z,9.83
2018-11-01T00:45:32.035Z,10.50
2018-11-01T00:48:01.274Z,9.17
2018-11-01T00:50:30.507Z,9.37
2018-11-01T00:52:59.741Z,9.30
2018-11-01T00:55:28.985Z,9.53
2018-11-01T00:57:58.234Z,9.93
2018-11-01T01:00:27.478Z,6.83
2018-11-01T01:02:56.713Z,8.70
2018-11-01T01:05:25.937Z,10.47
2018-11-01T01:07:55.154Z,9.65
2018-11-01T01:10:24.383Z,9.37
2018-11-01T01:12:53.632Z,11.67
2018-11-01T01:15:22.849Z,9.17
2018-11-01T01:17:52.082Z,8.33
2018-11-01T01:20:21.306Z,11.13
2018-11-01T01:22:50.546Z,7.10
2018-11-01T01:25:19.979Z,7.77
2018-11-01T01:27:49.250Z,9.43
2018-11-01T01:30:19.826Z,8.87
2018-11-01T01:32:49.467Z,8.67
2018-11-01T01:35:18.885Z,9.00
2018-11-01T01:37:48.130Z,8.07
2018-11-01T01:40:17.403Z,9.80
2018-11-01T01:42:49.677Z,10.33
2018-11-01T01:45:19.340Z,9.63
2018-11-01T01:47:48.618Z,10.13
2018-11-01T01:50:18.516Z,10.00
2018-11-01T01:52:47.904Z,9.07
2018-11-01T01:55:17.838Z,7.87
2018-11-01T01:57:47.083Z,8.43
2018-11-01T02:00:17.486Z,8.97
2018-11-01T02:02:48.040Z,8.90
2018-11-01T02:05:17.262Z,10.67
2018-11-01T02:07:46.485Z,12.83
2018-11-01T02:10:16.646Z,10.07
2018-11-01T02:12:45.867Z,9.33
2018-11-01T02:15:17.930Z,10.80
2018-11-01T02:17:47.141Z,8.83
2018-11-01T02:20:17.505Z,9.57
2018-11-01T02:22:47.095Z,8.70
2018-11-01T02:25:16.342Z,9.73
2018-11-01T02:27:50.855Z,14.23
2018-11-01T02:30:20.086Z,13.73
2018-11-01T02:32:49.342Z,12.47
2018-11-01T02:35:19.499Z,8.85
2018-11-01T02:37:48.828Z,8.87
2018-11-01T02:40:18.283Z,9.77
2018-11-01T02:42:47.574Z,9.40
2018-11-01T02:45:16.902Z,14.50
2018-11-01T02:47:46.155Z,9.07
2018-11-01T02:50:15.706Z,10.17
2018-11-01T02:52:44.958Z,9.70
2018-11-01T02:55:14.203Z,11.23
2018-11-01T02:57:43.428Z,12.00
2018-11-01T03:00:14.562Z,12.17
2018-11-01T03:02:43.801Z,9.43
2018-11-01T03:05:13.414Z,9.17
2018-11-01T03:07:42.764Z,9.20
2018-11-01T03:10:13.299Z,10.57
2018-11-01T03:12:42.722Z,9.28
2018-11-01T03:15:13.664Z,9.90
2018-11-01T03:17:42.995Z,10.33
2018-11-01T03:20:12.745Z,12.23
2018-11-01T03:22:42.222Z,9.20
2018-11-01T03:25:11.640Z,9.43
2018-11-01T03:27:40.890Z,9.13
2018-11-01T03:30:10.549Z,8.60
2018-11-01T03:32:39.811Z,8.43
2018-11-01T03:35:10.131Z,8.60
2018-11-01T03:37:39.419Z,9.90
2018-11-01T03:40:10.023Z,8.43
2018-11-01T03:42:39.868Z,7.87
2018-11-01T03:45:10.599Z,11.47
2018-11-01T03:47:39.972Z,9.63
2018-11-01T03:50:09.352Z,10.43
2018-11-01T03:52:38.620Z,9.70
2018-11-01T03:55:09.338Z,11.13
2018-11-01T03:57:38.558Z,12.47
2018-11-01T04:00:11.355Z,8.80
2018-11-01T04:02:40.649Z,8.13
2018-11-01T04:05:10.026Z,8.10
2018-11-01T04:07:39.562Z,9.75
2018-11-01T04:10:09.920Z,8.73
2018-11-01T04:12:39.184Z,9.20
2018-11-01T04:15:11.150Z,8.47
2018-11-01T04:17:40.429Z,8.35
2018-11-01T04:20:10.921Z,8.50
2018-11-01T04:22:41.575Z,8.43
2018-11-01T04:25:10.848Z,10.55
2018-11-01T04:27:40.095Z,9.20
2018-11-01T04:30:09.618Z,9.57
2018-11-01T04:32:38.845Z,12.70
2018-11-01T04:35:09.643Z,9.60
2018-11-01T04:37:38.961Z,9.23
2018-11-01T04:40:08.595Z,7.80
2018-11-01T04:42:37.790Z,9.58
2018-11-01T04:45:08.827Z,10.07
2018-11-01T04:47:38.186Z,8.83
2018-11-01T04:50:08.399Z,33.23
2018-11-01T04:52:37.598Z,50.00
2018-11-01T04:55:07.500Z,35.03
2018-11-01T04:57:36.695Z,19.60
2018-11-01T05:00:10.146Z,18.32
2018-11-01T05:02:39.552Z,9.73
2018-11-01T05:05:08.814Z,9.17
2018-11-01T05:07:38.312Z,7.78
2018-11-01T05:10:09.176Z,10.37
2018-11-01T05:12:38.949Z,11.65
2018-11-01T05:20:09.984Z,10.73
2018-11-01T05:22:39.442Z,12.13
2018-11-01T05:25:09.372Z,11.00
2018-11-01T05:27:38.702Z,8.97
2018-11-01T05:30:10.143Z,8.43
2018-11-01T05:32:39.435Z,7.95
2018-11-01T05:35:08.919Z,8.10
2018-11-01T05:37:38.147Z,10.17
2018-11-01T05:40:09.234Z,11.53
2018-11-01T05:42:38.436Z,10.27
2018-11-01T05:45:07.623Z,12.80
2018-11-01T05:47:36.825Z,14.50
2018-11-01T05:50:06.611Z,13.73
2018-11-01T05:52:35.814Z,14.00
2018-11-01T05:55:05.544Z,10.93
2018-11-01T05:57:34.772Z,10.87
2018-11-01T06:00:04.196Z,10.40
2018-11-01T06:02:38.893Z,9.27
2018-11-01T06:05:08.790Z,8.47
2018-11-01T06:07:43.612Z,12.33
2018-11-01T06:10:12.822Z,10.03
2018-11-01T06:12:42.047Z,10.23
2018-11-01T06:15:11.597Z,9.47
2018-11-01T06:17:41.128Z,8.63
2018-11-01T06:20:11.045Z,8.75
2018-11-01T06:22:40.254Z,8.70
2018-11-01T06:25:10.106Z,8.37
2018-11-01T06:27:39.292Z,10.13
2018-11-01T06:30:11.616Z,11.70
2018-11-01T06:32:40.786Z,11.77
2018-11-01T06:35:15.103Z,9.40
2018-11-01T06:37:45.230Z,9.05
2018-11-01T06:40:14.448Z,10.67
2018-11-01T06:42:43.635Z,9.30
2018-11-01T06:45:12.838Z,8.43
2018-11-01T06:47:42.046Z,7.47
2018-11-01T06:50:11.226Z,8.53
2018-11-01T06:52:40.427Z,8.23
2018-11-01T06:55:11.072Z,7.30
2018-11-01T06:57:40.278Z,6.87
2018-11-01T07:00:12.664Z,9.60
2018-11-01T07:02:42.087Z,7.27
2018-11-01T07:05:11.335Z,8.10
2018-11-01T07:07:40.740Z,7.80
2018-11-01T07:10:12.393Z,10.47
2018-11-01T07:12:41.592Z,9.17
2018-11-01T07:15:12.239Z,8.13
2018-11-01T07:22:40.594Z,9.60
2018-11-01T07:25:14.186Z,10.30
2018-11-01T07:27:43.397Z,12.87
2018-11-01T07:30:15.871Z,11.83
2018-11-01T07:32:45.147Z,9.53
2018-11-01T07:35:14.790Z,9.73
2018-11-01T07:37:45.018Z,7.75
2018-11-01T07:40:18.113Z,8.80
2018-11-01T07:42:47.333Z,7.20
2018-11-01T07:45:16.718Z,8.10
2018-11-01T07:47:46.350Z,7.37
2018-11-01T07:50:15.720Z,10.75
2018-11-01T07:52:44.951Z,6.87
2018-11-01T07:55:15.266Z,8.10
2018-11-01T07:57:44.503Z,8.77
2018-11-01T08:00:15.357Z,9.33
2018-11-01T08:02:45.458Z,9.73
2018-11-01T08:05:14.894Z,9.63
2018-11-01T08:07:44.118Z,7.50
2018-11-01T08:10:18.518Z,8.05
2018-11-01T08:12:48.303Z,10.63
2018-11-01T08:15:19.690Z,9.73
2018-11-01T08:17:48.936Z,8.03
2018-11-01T08:20:18.731Z,7.33
2018-11-01T08:22:47.570Z,6.70
2018-11-01T08:25:16.820Z,6.85
2018-11-01T08:27:46.004Z,6.70
2018-11-01T08:30:16.397Z,9.47
2018-11-01T08:32:45.607Z,6.43
2018-11-01T08:35:14.889Z,7.87
2018-11-01T08:37:44.713Z,7.63
2018-11-01T08:40:14.150Z,9.10
2018-11-01T08:42:43.455Z,7.57
2018-11-01T08:45:13.875Z,11.70
2018-11-01T08:47:43.062Z,9.28
2018-11-01T08:50:13.451Z,9.70
2018-11-01T08:52:43.220Z,8.80
2018-11-01T08:55:12.705Z,13.97
2018-11-01T08:57:42.912Z,10.03
2018-11-01T09:00:12.799Z,12.30
2018-11-01T09:02:42.746Z,8.43
2018-11-01T09:05:12.603Z,7.13
2018-11-01T09:07:42.095Z,12.07
2018-11-01T09:10:14.523Z,13.40
2018-11-01T09:12:44.040Z,13.13
2018-11-01T09:15:14.500Z,9.40
2018-11-01T09:17:43.693Z,8.20
2018-11-01T09:20:13.274Z,6.70
2018-11-01T09:22:43.213Z,7.40
2018-11-01T09:25:12.398Z,9.43
2018-11-01T09:27:41.591Z,7.73
2018-11-01T09:30:13.258Z,8.93
2018-11-01T09:32:42.684Z,9.13
2018-11-01T09:35:12.509Z,15.57
2018-11-01T09:37:42.307Z,12.60
2018-11-01T09:40:13.898Z,10.13
2018-11-01T09:42:43.576Z,12.00
2018-11-01T09:45:13.103Z,11.63
2018-11-01T09:47:42.604Z,15.13
2018-11-01T09:50:12.008Z,11.07
2018-11-01T09:52:41.364Z,15.63
2018-11-01T09:55:10.551Z,13.07
2018-11-01T09:57:40.811Z,12.45
2018-11-01T10:00:12.307Z,21.37
2018-11-01T10:02:41.728Z,42.73
2018-11-01T10:05:11.310Z,38.40
2018-11-01T10:07:40.603Z,19.63
2018-11-01T10:10:11.547Z,22.50
2018-11-01T10:12:41.080Z,14.37
2018-11-01T10:15:10.954Z,10.10
2018-11-01T10:17:40.415Z,10.18
2018-11-01T10:20:11.998Z,10.30
2018-11-01T10:22:41.413Z,9.47
2018-11-01T10:25:12.337Z,12.33
2018-11-01T10:27:41.498Z,8.37
2018-11-01T10:30:16.618Z,8.10
2018-11-01T10:32:45.950Z,8.13
2018-11-01T10:35:15.988Z,8.57
2018-11-01T10:37:45.489Z,8.80
2018-11-01T10:40:17.074Z,13.70
2018-11-01T10:42:46.279Z,10.57
2018-11-01T10:45:15.492Z,12.03
2018-11-01T10:47:44.787Z,12.57
2018-11-01T10:50:17.128Z,13.83
2018-11-01T10:52:46.412Z,15.70
2018-11-01T10:55:15.610Z,16.37
2018-11-01T10:57:44.794Z,13.77
2018-11-01T11:00:19.359Z,15.58
2018-11-01T11:02:49.603Z,10.97
2018-11-01T11:05:19.838Z,14.60
2018-11-01T11:07:49.383Z,11.23
2018-11-01T11:10:18.894Z,10.60
2018-11-01T11:12:48.372Z,10.33
2018-11-01T11:15:17.550Z,13.07
2018-11-01T11:17:46.745Z,11.63
2018-11-01T11:20:16.077Z,14.67
2018-11-01T11:22:45.134Z,18.00
2018-11-01T11:25:14.331Z,11.90
2018-11-01T11:27:43.552Z,8.70
2018-11-01T11:30:13.402Z,11.20
2018-11-01T11:32:42.432Z,10.53
2018-11-01T11:35:11.935Z,14.10
2018-11-01T11:37:41.168Z,13.43
2018-11-01T11:40:11.647Z,15.50
2018-11-01T11:42:41.079Z,12.77
2018-11-01T11:45:11.566Z,16.50
2018-11-01T11:47:41.191Z,16.83
2018-11-01T11:50:11.854Z,14.07
2018-11-01T11:52:41.546Z,14.93
2018-11-01T11:55:11.273Z,13.88
2018-11-01T11:57:40.472Z,10.57
2018-11-01T12:00:12.611Z,18.53
2018-11-01T12:02:41.951Z,14.20
2018-11-01T12:05:11.164Z,14.97
2018-11-01T12:07:40.350Z,15.07
2018-11-01T12:10:11.435Z,14.05
2018-11-01T12:12:40.660Z,13.43
2018-11-01T12:15:09.922Z,15.73
2018-11-01T12:17:39.267Z,18.37
2018-11-01T12:20:10.402Z,19.13
2018-11-01T12:22:39.632Z,19.40
2018-11-01T12:25:09.320Z,20.63
2018-11-01T12:27:39.734Z,17.07
2018-11-01T12:30:11.263Z,17.03
2018-11-01T12:32:40.458Z,16.60
2018-11-01T12:35:10.317Z,19.50
2018-11-01T12:37:39.602Z,17.70
2018-11-01T12:40:10.543Z,15.50
2018-11-01T12:42:39.758Z,15.97
2018-11-01T12:45:10.557Z,16.43
2018-11-01T12:47:39.906Z,22.70
2018-11-01T12:50:11.214Z,19.73
2018-11-01T12:52:40.442Z,19.93
2018-11-01T12:55:09.790Z,18.30
2018-11-01T12:57:39.050Z,21.73
2018-11-01T13:00:10.102Z,17.67
2018-11-01T13:02:39.431Z,19.23
2018-11-01T13:05:08.510Z,16.90
2018-11-01T13:07:37.706Z,15.90
2018-11-01T13:10:06.910Z,17.00
2018-11-01T13:12:36.130Z,18.67
2018-11-01T13:15:06.419Z,16.57
2018-11-01T13:17:35.615Z,19.92
2018-11-01T13:20:04.840Z,13.37
2018-11-01T13:22:34.044Z,12.67
2018-11-01T13:25:03.246Z,17.37
2018-11-01T13:27:32.447Z,9.93
2018-11-01T13:30:01.656Z,13.43
2018-11-01T13:32:31.118Z,12.67
2018-11-01T13:35:00.348Z,13.03
2018-11-01T13:37:29.510Z,7.10
2018-11-01T13:39:58.778Z,11.65
2018-11-01T13:42:28.193Z,9.07
2018-11-01T13:44:57.371Z,9.73
2018-11-01T13:47:26.577Z,10.30
2018-11-01T13:49:55.754Z,9.03
2018-11-01T13:52:24.956Z,12.60
2018-11-01T13:54:54.159Z,6.60
2018-11-01T13:57:24.485Z,5.90
2018-11-01T13:59:55.188Z,6.17
2018-11-01T14:02:24.375Z,3.77
2018-11-01T14:04:53.591Z,4.77
2018-11-01T14:07:24.010Z,4.27
2018-11-01T14:09:53.188Z,7.93
2018-11-01T14:12:22.389Z,4.57
2018-11-01T14:14:51.926Z,7.50
2018-11-01T14:17:20.797Z,3.40
2018-11-01T14:19:50.002Z,4.40
2018-11-01T14:22:19.206Z,6.03
2018-11-01T14:24:48.395Z,2.80
2018-11-01T14:27:17.680Z,2.90
2018-11-01T14:29:47.806Z,2.50
2018-11-01T14:32:17.006Z,4.47
2018-11-01T14:34:46.223Z,2.43
2018-11-01T14:37:15.721Z,3.33
2018-11-01T14:39:44.958Z,2.67
2018-11-01T14:42:14.258Z,4.15
2018-11-01T14:44:43.571Z,3.77
2018-11-01T14:47:12.788Z,4.67
2018-11-01T14:49:41.998Z,1.97
2018-11-01T14:52:11.424Z,2.73
2018-11-01T14:54:41.484Z,3.63
2018-11-01T14:57:10.265Z,3.20
2018-11-01T14:59:40.372Z,2.10
2018-11-01T15:02:08.091Z,3.17
2018-11-01T15:04:37.277Z,3.10
2018-11-01T15:07:06.666Z,3.43
2018-11-01T15:09:35.861Z,5.27
2018-11-01T15:12:05.190Z,3.97
2018-11-01T15:14:34.457Z,6.87
2018-11-01T15:17:03.619Z,5.83
2018-11-01T15:19:32.806Z,6.37
2018-11-01T15:22:02.020Z,3.07
2018-11-01T15:24:31.243Z,4.43
2018-11-01T15:27:00.780Z,5.53
2018-11-01T15:29:31.075Z,4.47
2018-11-01T15:32:02.352Z,3.47
2018-11-01T15:34:32.367Z,3.20
2018-11-01T15:37:01.567Z,4.13
2018-11-01T15:39:30.762Z,3.47
2018-11-01T15:41:59.970Z,4.83
2018-11-01T15:44:29.174Z,2.90
2018-11-01T15:46:58.385Z,2.47
2018-11-01T15:49:27.584Z,2.53
2018-11-01T15:51:56.841Z,3.00
2018-11-01T15:54:25.982Z,2.93
2018-11-01T15:56:55.198Z,6.50
2018-11-01T15:59:24.462Z,2.77
2018-11-01T16:01:53.623Z,3.37
2018-11-01T16:04:22.851Z,6.07
2018-11-01T16:06:53.167Z,3.52
2018-11-01T16:09:22.374Z,4.50
2018-11-01T16:11:51.567Z,3.53
2018-11-01T16:14:20.771Z,2.97
2018-11-01T16:16:49.992Z,4.23
2018-11-01T16:19:19.279Z,4.00
2018-11-01T16:21:48.478Z,4.23
2018-11-01T16:24:17.720Z,4.67
2018-11-01T16:26:46.927Z,16.35
2018-11-01T16:29:16.143Z,2.93
2018-11-01T16:31:45.343Z,3.63
2018-11-01T16:34:14.566Z,4.43
2018-11-01T16:36:44.017Z,2.92
2018-11-01T16:39:13.664Z,3.07
2018-11-01T16:41:42.836Z,4.57
2018-11-01T16:44:12.358Z,3.53
2018-11-01T16:46:41.598Z,4.53
2018-11-01T16:49:11.207Z,5.53
2018-11-01T16:51:40.431Z,5.57
2018-11-01T16:54:09.691Z,5.70
2018-11-01T16:56:38.880Z,4.73
2018-11-01T16:59:08.075Z,4.70
2018-11-01T17:01:37.243Z,7.70
2018-11-01T17:04:07.013Z,4.20
2018-11-01T17:06:36.214Z,3.83
2018-11-01T17:09:08.694Z,4.90
2018-11-01T17:11:38.048Z,4.07
2018-11-01T17:14:07.508Z,4.80
2018-11-01T17:16:37.524Z,56.37
2018-11-01T17:19:08.086Z,28.17
2018-11-01T17:21:37.483Z,32.27
2018-11-01T17:24:07.297Z,7.90
2018-11-01T17:26:36.543Z,11.53
2018-11-01T17:29:05.975Z,7.53
2018-11-01T17:31:35.170Z,3.40
2018-11-01T17:34:04.459Z,3.40
2018-11-01T17:36:33.555Z,5.53
2018-11-01T17:39:02.819Z,4.30
2018-11-01T17:41:32.007Z,3.70
2018-11-01T17:44:01.223Z,4.53
2018-11-01T17:46:30.528Z,9.23
2018-11-01T17:48:59.639Z,6.77
2018-11-01T17:51:28.912Z,4.80
2018-11-01T17:53:58.056Z,4.60
2018-11-01T17:56:27.759Z,5.07
2018-11-01T17:58:57.652Z,4.10
2018-11-01T18:01:26.814Z,3.57
2018-11-01T18:03:56.056Z,5.60
2018-11-01T18:06:25.273Z,5.53
2018-11-01T18:08:55.759Z,7.60
2018-11-01T18:11:24.907Z,6.43
2018-11-01T18:13:54.234Z,7.27
2018-11-01T18:16:23.425Z,6.95
2018-11-01T18:18:52.592Z,5.20
2018-11-01T18:21:21.811Z,4.43
2018-11-01T18:23:50.987Z,7.80
2018-11-01T18:26:20.188Z,5.33
2018-11-01T18:28:49.451Z,9.67
2018-11-01T18:31:18.661Z,10.60
2018-11-01T18:33:47.803Z,11.80
2018-11-01T18:36:17.203Z,28.30
2018-11-01T18:38:46.482Z,46.83
2018-11-01T18:41:15.690Z,84.20
2018-11-01T18:43:44.910Z,154.73
2018-11-01T18:46:14.155Z,77.40
2018-11-01T18:48:43.958Z,86.07
2018-11-01T18:51:13.211Z,84.13
2018-11-01T18:53:42.411Z,63.40
2018-11-01T18:56:13.408Z,65.45
2018-11-01T18:58:42.591Z,71.80
2018-11-01T19:01:11.799Z,69.97
2018-11-01T19:03:40.998Z,61.07
2018-11-01T19:06:10.201Z,54.20
2018-11-01T19:08:40.491Z,32.75
2018-11-01T19:11:09.755Z,26.00
2018-11-01T19:13:39.080Z,23.17
2018-11-01T19:16:08.330Z,23.07
2018-11-01T19:18:37.510Z,15.77
2018-11-01T19:21:06.927Z,16.67
2018-11-01T19:23:36.122Z,14.93
2018-11-01T19:26:05.542Z,13.67
2018-11-01T19:28:34.767Z,15.10
2018-11-01T19:31:04.026Z,18.80
2018-11-01T19:33:33.327Z,17.92
2018-11-01T19:36:02.551Z,19.27
2018-11-01T19:38:31.755Z,17.77
2018-11-01T19:41:00.975Z,18.87
2018-11-01T19:43:30.278Z,19.43
2018-11-01T19:45:59.475Z,12.03
2018-11-01T19:48:28.684Z,14.23
2018-11-01T19:50:57.935Z,12.83
2018-11-01T19:53:27.120Z,11.80
2018-11-01T19:55:56.313Z,12.30
2018-11-01T19:58:25.878Z,12.17
2018-11-01T20:00:55.095Z,18.17
2018-11-01T20:03:24.311Z,14.33
2018-11-01T20:05:54.772Z,15.23
2018-11-01T20:08:23.989Z,19.97
2018-11-01T20:10:53.177Z,18.53
2018-11-01T20:13:22.388Z,14.10
2018-11-01T20:15:51.661Z,19.83
2018-11-01T20:18:20.896Z,16.70
2018-11-01T20:20:50.070Z,21.47
2018-11-01T20:23:19.304Z,20.63
2018-11-01T20:25:48.655Z,19.75
2018-11-01T20:28:17.736Z,25.10
2018-11-01T20:30:46.987Z,21.47
2018-11-01T20:33:16.181Z,22.40
2018-11-01T20:35:45.398Z,21.27
2018-11-01T20:38:14.928Z,21.60
2018-11-01T20:40:44.132Z,18.73
2018-11-01T20:43:13.340Z,22.40
2018-11-01T20:45:42.606Z,19.57
2018-11-01T20:48:11.838Z,19.82
2018-11-01T20:50:41.015Z,16.17
2018-11-01T20:53:10.234Z,16.30
2018-11-01T20:55:39.472Z,16.93
2018-11-01T20:58:08.690Z,12.53
2018-11-01T21:00:37.888Z,17.93
2018-11-01T21:03:07.286Z,14.30
2018-11-01T21:05:37.815Z,12.87
2018-11-01T21:08:07.031Z,14.63
2018-11-01T21:10:36.562Z,37.27
2018-11-01T21:13:06.156Z,47.57
2018-11-01T21:15:35.381Z,35.53
2018-11-01T21:18:04.614Z,31.40
2018-11-01T21:20:33.804Z,36.90
2018-11-01T21:23:03.046Z,25.67
2018-11-01T21:25:32.246Z,25.90
2018-11-01T21:28:01.441Z,18.40
2018-11-01T21:30:30.651Z,15.17
2018-11-01T21:32:59.855Z,15.50
2018-11-01T21:35:29.173Z,16.70
2018-11-01T21:37:58.254Z,11.83
2018-11-01T21:43:26.792Z,16.00
2018-11-01T21:45:56.035Z,11.20
2018-11-01T21:48:25.226Z,13.83
2018-11-01T21:50:54.430Z,11.83
2018-11-01T21:53:23.709Z,16.20
2018-11-01T21:55:52.886Z,13.93
2018-11-01T21:58:22.082Z,11.67
2018-11-01T22:00:51.319Z,11.87
2018-11-01T22:03:20.518Z,13.87
2018-11-01T22:05:49.759Z,12.80
2018-11-01T22:08:19.001Z,12.93
2018-11-01T22:10:48.217Z,12.60
2018-11-01T22:13:17.423Z,14.30
2018-11-01T22:15:46.628Z,12.87
2018-11-01T22:18:18.822Z,14.77
2018-11-01T22:20:48.256Z,16.83
2018-11-01T22:23:17.474Z,13.27
2018-11-01T22:25:46.675Z,14.97
2018-11-01T22:28:15.943Z,14.63
2018-11-01T22:30:46.333Z,14.00
2018-11-01T22:33:15.538Z,13.93
2018-11-01T22:35:44.753Z,15.00
2018-11-01T22:38:14.009Z,13.10
2018-11-01T22:40:43.185Z,13.57
2018-11-01T22:43:12.388Z,12.23
2018-11-01T22:45:41.603Z,12.73
2018-11-01T22:48:10.826Z,15.10
2018-11-01T22:50:40.039Z,15.88
2018-11-01T22:53:09.251Z,14.30
2018-11-01T22:55:38.435Z,14.37
2018-11-01T22:58:07.660Z,17.40
2018-11-01T23:00:40.936Z,16.33
2018-11-01T23:03:10.366Z,12.97
2018-11-01T23:05:39.566Z,13.03
2018-11-01T23:08:09.071Z,15.53
2018-11-01T23:10:38.271Z,14.53
2018-11-01T23:13:07.479Z,15.27
2018-11-01T23:15:36.675Z,13.20
2018-11-01T23:18:05.914Z,11.93
2018-11-01T23:20:35.100Z,12.77
2018-11-01T23:23:04.300Z,12.43
2018-11-01T23:25:33.495Z,11.17
2018-11-01T23:28:02.699Z,14.27
2018-11-01T23:30:31.894Z,14.40
2018-11-01T23:33:01.165Z,11.93
2018-11-01T23:35:30.294Z,12.13
2018-11-01T23:38:04.617Z,11.27
2018-11-01T23:40:39.087Z,12.37
2018-11-01T23:43:13.559Z,12.63
2018-11-01T23:45:47.916Z,12.47
2018-11-01T23:48:16.211Z,11.57
2018-11-01T23:50:52.415Z,11.67
2018-11-01T23:53:23.781Z,14.43
2018-11-01T23:55:54.202Z,12.03
2018-11-01T23:58:23.497Z,11.97
